Time;durP1;ratioP1;P1;durP2;ratioP2;P2;SDS_P1;SDS_P2;PMS_P1;PMS_P2;Temp;Humidity;BMP_temperature;BMP_pressure;BME280_temperature;BME280_humidity;BME280_pressure;Samples;Min_cycle;Max_cycle;Signal;HPM_P1;HPM_P2
2022/11/20 00:01:25;;;;;;;12.40;2.30;;;;;;;;;;5015352;28;20030;-55
2022/11/20 00:03:53;;;;;;;9.07;2.22;;;;;;;;;;5014080;28;20096;-57
2022/11/20 00:06:21;;;;;;;15.63;2.42;;;;;;;;;;5015420;28;20069;-57
2022/11/20 00:08:49;;;;;;;8.10;2.22;;;;;;;;;;5015397;28;20037;-58
2022/11/20 00:11:17;;;;;;;8.63;2.17;;;;;;;;;;5014805;28;20033;-58
2022/11/20 00:13:45;;;;;;;12.70;2.17;;;;;;;;;;5013619;28;20037;-56
2022/11/20 00:16:13;;;;;;;8.50;2.15;;;;;;;;;;5015173;28;20028;-59
2022/11/20 00:18:42;;;;;;;7.70;1.73;;;;;;;;;;5014735;28;20041;-55
2022/11/20 00:21:13;;;;;;;10.27;2.47;;;;;;;;;;5014779;28;20041;-56
2022/11/20 00:23:41;;;;;;;8.32;2.13;;;;;;;;;;5014272;28;20022;-56
2022/11/20 00:26:10;;;;;;;6.32;2.00;;;;;;;;;;5013896;28;20033;-57
2022/11/20 00:28:37;;;;;;;7.18;2.17;;;;;;;;;;5014912;28;20121;-55
2022/11/20 00:31:08;;;;;;;11.50;2.30;;;;;;;;;;4995176;28;20034;-57
2022/11/20 00:33:35;;;;;;;6.72;2.55;;;;;;;;;;4995073;28;20046;-54
2022/11/20 00:36:06;;;;;;;8.27;2.33;;;;;;;;;;4995147;28;20135;-57
2022/11/20 00:38:34;;;;;;;5.70;2.10;;;;;;;;;;4995348;28;20022;-55
2022/11/20 00:41:02;;;;;;;11.88;2.20;;;;;;;;;;4995099;28;20031;-55
2022/11/20 00:43:29;;;;;;;11.48;2.40;;;;;;;;;;4994808;28;20120;-55
2022/11/20 00:46:00;;;;;;;10.13;2.40;;;;;;;;;;4993733;28;20495;-55
2022/11/20 00:48:27;;;;;;;10.68;2.63;;;;;;;;;;4994761;28;20050;-53
2022/11/20 00:50:54;;;;;;;6.88;2.47;;;;;;;;;;4996793;28;20383;-56
2022/11/20 00:53:21;;;;;;;10.27;2.95;;;;;;;;;;5013314;28;20056;-56
2022/11/20 00:55:58;;;;;;;10.45;2.80;;;;;;;;;;5014120;28;20040;-54
2022/11/20 00:58:26;;;;;;;6.28;2.67;;;;;;;;;;5014500;28;20369;-55
2022/11/20 01:00:53;;;;;;;11.30;3.03;;;;;;;;;;5013139;28;20063;-55
2022/11/20 01:03:20;;;;;;;8.30;3.53;;;;;;;;;;5014353;28;20080;-57
2022/11/20 01:05:47;;;;;;;8.13;3.00;;;;;;;;;;5014375;28;20022;-54
2022/11/20 01:08:14;;;;;;;18.98;3.72;;;;;;;;;;5001795;28;20045;-57
2022/11/20 01:10:41;;;;;;;12.60;3.50;;;;;;;;;;4994019;28;20030;-57
2022/11/20 01:15:53;;;;;;;16.55;4.88;;;;;;;;;;4994624;28;20092;-58
2022/11/20 01:18:20;;;;;;;12.30;4.13;;;;;;;;;;4994259;28;20060;-56
2022/11/20 01:20:47;;;;;;;12.95;4.38;;;;;;;;;;4993357;28;20030;-57
2022/11/20 01:23:14;;;;;;;15.15;4.65;;;;;;;;;;4994405;28;20026;-55
2022/11/20 01:25:41;;;;;;;10.07;4.78;;;;;;;;;;4993128;28;20444;-57
2022/11/20 01:28:08;;;;;;;17.17;5.05;;;;;;;;;;4994353;28;20548;-57
2022/11/20 01:30:35;;;;;;;12.25;4.88;;;;;;;;;;4994338;28;20041;-56
2022/11/20 01:33:02;;;;;;;15.02;4.97;;;;;;;;;;4993508;28;20536;-54
2022/11/20 01:35:29;;;;;;;20.10;6.85;;;;;;;;;;4992383;28;20045;-55
2022/11/20 01:37:56;;;;;;;45.10;10.68;;;;;;;;;;4994521;28;20038;-57
2022/11/20 01:40:23;;;;;;;57.38;16.02;;;;;;;;;;5013493;28;20104;-57
2022/11/20 01:45:49;;;;;;;69.05;20.27;;;;;;;;;;5008028;28;20045;-57
2022/11/20 01:48:16;;;;;;;75.93;24.35;;;;;;;;;;5008715;28;20112;-57
2022/11/20 01:50:43;;;;;;;74.78;22.75;;;;;;;;;;4993585;28;20034;-58
2022/11/20 01:53:12;;;;;;;82.82;22.75;;;;;;;;;;5004538;28;20113;-58
2022/11/20 01:55:42;;;;;;;169.27;25.10;;;;;;;;;;5010000;28;20038;-58
2022/11/20 01:58:09;;;;;;;89.38;19.98;;;;;;;;;;5011402;28;20488;-56
2022/11/20 02:00:36;;;;;;;59.63;19.95;;;;;;;;;;5012949;28;20033;-57
2022/11/20 02:03:15;;;;;;;65.30;13.23;;;;;;;;;;5012853;28;20026;-58
2022/11/20 02:05:51;;;;;;;85.63;13.02;;;;;;;;;;5012829;28;20040;-58
2022/11/20 02:08:22;;;;;;;81.35;15.02;;;;;;;;;;5013151;28;20065;-56
2022/11/20 02:10:49;;;;;;;79.18;11.80;;;;;;;;;;5012970;28;20032;-51
2022/11/20 02:16:02;;;;;;;39.33;8.35;;;;;;;;;;5012841;28;20037;-56
2022/11/20 02:18:29;;;;;;;70.13;8.90;;;;;;;;;;5012875;28;20050;-50
2022/11/20 02:21:07;;;;;;;46.33;9.85;;;;;;;;;;5012414;28;20101;-52
2022/11/20 02:23:39;;;;;;;39.78;10.40;;;;;;;;;;5012487;28;20051;-57
2022/11/20 02:26:08;;;;;;;33.35;7.82;;;;;;;;;;5012164;28;20105;-55
2022/11/20 02:28:35;;;;;;;33.78;8.73;;;;;;;;;;5012536;28;20079;-57
2022/11/20 02:31:02;;;;;;;30.70;8.45;;;;;;;;;;5012445;28;20076;-57
2022/11/20 02:33:29;;;;;;;26.08;8.02;;;;;;;;;;5012627;28;20061;-53
2022/11/20 02:35:56;;;;;;;32.15;8.15;;;;;;;;;;5012409;28;20060;-58
2022/11/20 02:38:23;;;;;;;25.10;7.53;;;;;;;;;;5012671;28;20391;-56
2022/11/20 02:40:50;;;;;;;28.23;6.90;;;;;;;;;;5012777;28;20041;-57
2022/11/20 02:43:17;;;;;;;29.13;7.30;;;;;;;;;;5011853;28;20026;-57
2022/11/20 02:45:44;;;;;;;31.48;7.75;;;;;;;;;;5012729;28;20033;-55
2022/11/20 02:48:11;;;;;;;25.88;7.85;;;;;;;;;;5012725;28;20052;-56
2022/11/20 02:50:39;;;;;;;27.45;7.38;;;;;;;;;;5012357;28;20034;-53
2022/11/20 02:53:07;;;;;;;26.50;8.75;;;;;;;;;;5012304;28;20030;-56
2022/11/20 02:55:34;;;;;;;25.83;8.18;;;;;;;;;;5012875;28;20030;-53
2022/11/20 02:58:04;;;;;;;32.05;8.23;;;;;;;;;;5011143;28;20164;-56
2022/11/20 03:00:31;;;;;;;28.17;8.40;;;;;;;;;;5011575;28;20025;-55
2022/11/20 03:02:58;;;;;;;25.92;8.30;;;;;;;;;;5008593;28;20045;-54
2022/11/20 03:05:25;;;;;;;28.48;9.07;;;;;;;;;;5009509;28;20034;-57
2022/11/20 03:07:52;;;;;;;33.53;8.70;;;;;;;;;;5012382;28;20034;-57
2022/11/20 03:10:19;;;;;;;19.75;8.25;;;;;;;;;;5012668;28;20022;-54
2022/11/20 03:12:46;;;;;;;35.72;9.23;;;;;;;;;;5012630;28;20041;-56
2022/11/20 03:15:13;;;;;;;32.63;9.55;;;;;;;;;;5012328;28;20539;-56
2022/11/20 03:17:40;;;;;;;27.80;8.35;;;;;;;;;;5005749;28;20046;-57
2022/11/20 03:20:08;;;;;;;23.00;8.10;;;;;;;;;;4993004;28;20026;-56
2022/11/20 03:22:35;;;;;;;34.03;8.48;;;;;;;;;;4992848;28;20030;-56
2022/11/20 03:25:02;;;;;;;30.95;8.70;;;;;;;;;;4992998;28;20030;-57
2022/11/20 03:27:33;;;;;;;23.63;7.93;;;;;;;;;;4993043;28;20026;-57
2022/11/20 03:30:00;;;;;;;27.65;8.70;;;;;;;;;;4992690;28;20072;-55
2022/11/20 03:32:27;;;;;;;30.27;9.02;;;;;;;;;;4993089;28;20027;-56
2022/11/20 03:34:54;;;;;;;27.95;8.48;;;;;;;;;;4996601;28;20485;-56
2022/11/20 03:37:21;;;;;;;25.77;8.50;;;;;;;;;;4996631;28;20019;-51
2022/11/20 03:39:47;;;;;;;28.27;7.50;;;;;;;;;;4996518;28;20562;-56
2022/11/20 03:44:59;;;;;;;18.60;7.57;;;;;;;;;;4996487;28;20169;-56
2022/11/20 03:47:26;;;;;;;24.05;8.15;;;;;;;;;;4996420;28;20033;-57
2022/11/20 03:49:53;;;;;;;24.17;7.43;;;;;;;;;;4996383;28;20032;-55
2022/11/20 03:52:20;;;;;;;24.88;8.20;;;;;;;;;;4996218;28;20050;-57
2022/11/20 03:54:47;;;;;;;26.40;8.48;;;;;;;;;;4996248;28;20026;-56
2022/11/20 03:57:14;;;;;;;22.13;7.47;;;;;;;;;;4996291;28;20034;-55
2022/11/20 03:59:41;;;;;;;22.50;7.70;;;;;;;;;;4996212;28;20428;-56
2022/11/20 04:02:08;;;;;;;17.75;7.05;;;;;;;;;;4996090;28;20032;-56
2022/11/20 04:04:35;;;;;;;20.10;7.40;;;;;;;;;;4996124;28;20030;-57
2022/11/20 04:07:02;;;;;;;20.45;7.15;;;;;;;;;;4996120;28;20449;-57
2022/11/20 04:09:29;;;;;;;21.48;6.97;;;;;;;;;;4995925;28;20385;-56
2022/11/20 04:11:55;;;;;;;23.48;7.38;;;;;;;;;;4995895;28;20500;-56
2022/11/20 04:14:22;;;;;;;27.70;7.28;;;;;;;;;;4995895;28;20472;-56
2022/11/20 04:16:49;;;;;;;24.80;7.60;;;;;;;;;;4995610;28;20050;-55
2022/11/20 04:19:17;;;;;;;18.17;6.85;;;;;;;;;;4996067;28;20503;-57
2022/11/20 04:21:44;;;;;;;19.45;6.88;;;;;;;;;;4995723;28;20030;-56
2022/11/20 04:24:11;;;;;;;17.92;6.57;;;;;;;;;;4995755;28;20041;-56
2022/11/20 04:26:38;;;;;;;17.50;6.32;;;;;;;;;;4995751;28;20045;-57
2022/11/20 04:29:05;;;;;;;19.30;6.65;;;;;;;;;;4995585;28;20073;-57
2022/11/20 04:31:34;;;;;;;18.35;7.10;;;;;;;;;;4995592;28;20023;-57
2022/11/20 04:34:02;;;;;;;17.88;6.60;;;;;;;;;;4995145;28;20038;-56
2022/11/20 04:36:30;;;;;;;20.42;6.43;;;;;;;;;;4995496;28;20027;-56
2022/11/20 04:39:01;;;;;;;16.65;6.45;;;;;;;;;;4995508;28;20023;-57
2022/11/20 04:41:30;;;;;;;16.73;6.13;;;;;;;;;;4995410;28;20022;-56
2022/11/20 04:44:04;;;;;;;16.08;6.07;;;;;;;;;;4995100;28;20416;-57
2022/11/20 04:46:32;;;;;;;14.13;6.32;;;;;;;;;;4995346;28;20045;-57
2022/11/20 04:48:59;;;;;;;15.77;6.15;;;;;;;;;;4995278;28;20507;-55
2022/11/20 04:51:26;;;;;;;14.07;6.25;;;;;;;;;;4995207;28;20477;-57
2022/11/20 04:53:54;;;;;;;15.10;5.35;;;;;;;;;;4994967;28;20086;-56
2022/11/20 04:56:21;;;;;;;13.50;5.63;;;;;;;;;;4995171;28;20105;-55
2022/11/20 04:58:48;;;;;;;16.33;5.47;;;;;;;;;;4995115;28;20488;-56
2022/11/20 05:01:19;;;;;;;13.57;5.07;;;;;;;;;;4995024;28;20110;-57
2022/11/20 05:03:46;;;;;;;14.15;5.95;;;;;;;;;;4994890;28;20089;-57
2022/11/20 05:06:15;;;;;;;11.68;5.05;;;;;;;;;;4995001;28;20033;-57
2022/11/20 05:08:42;;;;;;;13.13;5.18;;;;;;;;;;4994943;28;20073;-57
2022/11/20 05:11:10;;;;;;;17.33;6.13;;;;;;;;;;4994923;28;20018;-57
2022/11/20 05:13:37;;;;;;;12.90;5.15;;;;;;;;;;4994654;28;20064;-57
2022/11/20 05:16:08;;;;;;;14.10;5.55;;;;;;;;;;4994742;28;20095;-57
2022/11/20 05:18:36;;;;;;;14.65;5.55;;;;;;;;;;4994477;28;20128;-57
2022/11/20 05:21:03;;;;;;;13.60;5.40;;;;;;;;;;4994727;28;20022;-57
2022/11/20 05:23:30;;;;;;;14.57;5.03;;;;;;;;;;4994570;28;20057;-56
2022/11/20 05:25:58;;;;;;;9.88;4.70;;;;;;;;;;4997893;28;20076;-56
2022/11/20 05:28:25;;;;;;;10.75;5.15;;;;;;;;;;5013896;28;20045;-56
2022/11/20 05:30:52;;;;;;;11.82;4.82;;;;;;;;;;5014125;28;20026;-56
2022/11/20 05:33:19;;;;;;;10.90;4.57;;;;;;;;;;5013904;28;20052;-56
2022/11/20 05:35:47;;;;;;;12.30;4.93;;;;;;;;;;5014096;28;20746;-55
2022/11/20 05:38:15;;;;;;;14.02;5.07;;;;;;;;;;5011502;28;20109;-57
2022/11/20 05:40:42;;;;;;;11.75;4.93;;;;;;;;;;5013890;28;20034;-56
2022/11/20 05:43:09;;;;;;;12.10;4.65;;;;;;;;;;5013724;28;20044;-56
2022/11/20 05:45:36;;;;;;;9.65;3.75;;;;;;;;;;5013108;28;20064;-55
2022/11/20 05:48:03;;;;;;;10.82;4.53;;;;;;;;;;5013741;28;20512;-56
2022/11/20 05:50:29;;;;;;;10.43;4.68;;;;;;;;;;5013600;28;20052;-56
2022/11/20 05:52:59;;;;;;;11.07;4.18;;;;;;;;;;5013539;28;20100;-55
2022/11/20 05:55:26;;;;;;;9.13;4.25;;;;;;;;;;5013192;28;20399;-56
2022/11/20 05:57:56;;;;;;;12.02;4.82;;;;;;;;;;5013616;28;20486;-57
2022/11/20 06:00:23;;;;;;;12.70;4.63;;;;;;;;;;5013575;28;20530;-51
2022/11/20 06:02:50;;;;;;;10.45;4.50;;;;;;;;;;5012091;28;20435;-57
2022/11/20 06:05:17;;;;;;;9.30;4.13;;;;;;;;;;5013406;28;20368;-55
2022/11/20 06:07:44;;;;;;;9.43;4.50;;;;;;;;;;5013524;28;20033;-56
2022/11/20 06:10:11;;;;;;;10.98;4.32;;;;;;;;;;5013305;28;20543;-56
2022/11/20 06:12:38;;;;;;;10.52;4.32;;;;;;;;;;5013235;28;20112;-56
2022/11/20 06:15:06;;;;;;;10.13;4.28;;;;;;;;;;5013269;28;20034;-56
2022/11/20 06:17:33;;;;;;;9.80;4.30;;;;;;;;;;5013061;28;20049;-56
2022/11/20 06:20:00;;;;;;;9.52;3.85;;;;;;;;;;5013073;28;20141;-57
2022/11/20 06:22:27;;;;;;;13.07;4.25;;;;;;;;;;5013168;28;20420;-56
2022/11/20 06:24:53;;;;;;;10.40;3.92;;;;;;;;;;5013256;28;20030;-55
2022/11/20 06:27:20;;;;;;;9.77;4.03;;;;;;;;;;5013093;28;20026;-56
2022/11/20 06:29:47;;;;;;;10.65;4.30;;;;;;;;;;5013118;28;20024;-56
2022/11/20 06:32:14;;;;;;;7.55;3.65;;;;;;;;;;5012852;28;20057;-56
2022/11/20 06:34:41;;;;;;;9.85;4.05;;;;;;;;;;5012927;28;20053;-56
2022/11/20 06:37:08;;;;;;;9.27;3.63;;;;;;;;;;5012960;28;20030;-56
2022/11/20 06:39:35;;;;;;;6.53;3.65;;;;;;;;;;5012831;28;20021;-56
2022/11/20 06:42:02;;;;;;;9.05;4.13;;;;;;;;;;5012837;28;20029;-56
2022/11/20 06:44:29;;;;;;;5.53;3.40;;;;;;;;;;5012977;28;20035;-56
2022/11/20 06:46:56;;;;;;;6.78;3.60;;;;;;;;;;5012957;28;20473;-56
2022/11/20 06:49:23;;;;;;;11.32;4.25;;;;;;;;;;5011708;28;20041;-56
2022/11/20 06:51:50;;;;;;;8.32;3.72;;;;;;;;;;5012786;28;20546;-56
2022/11/20 06:54:17;;;;;;;6.63;3.13;;;;;;;;;;5012548;28;20042;-55
2022/11/20 06:56:47;;;;;;;6.95;3.10;;;;;;;;;;5012805;28;20056;-55
2022/11/20 06:59:14;;;;;;;7.55;3.08;;;;;;;;;;5012779;28;20080;-54
2022/11/20 07:01:41;;;;;;;7.00;3.33;;;;;;;;;;5012655;28;20061;-56
2022/11/20 07:04:08;;;;;;;5.82;2.72;;;;;;;;;;5012765;28;20042;-56
2022/11/20 07:06:35;;;;;;;6.60;2.90;;;;;;;;;;5012710;28;20057;-56
2022/11/20 07:09:02;;;;;;;5.22;2.72;;;;;;;;;;5015536;28;20026;-56
2022/11/20 07:11:29;;;;;;;7.07;2.70;;;;;;;;;;5016571;28;20472;-56
2022/11/20 07:13:57;;;;;;;6.25;3.10;;;;;;;;;;5016531;28;20026;-56
2022/11/20 07:16:24;;;;;;;5.65;2.63;;;;;;;;;;5016277;28;20025;-54
2022/11/20 07:18:51;;;;;;;5.07;2.47;;;;;;;;;;5016448;28;20037;-57
2022/11/20 07:21:18;;;;;;;5.75;2.90;;;;;;;;;;5014976;28;20112;-55
2022/11/20 07:23:45;;;;;;;6.45;2.40;;;;;;;;;;5016499;28;20053;-56
2022/11/20 07:26:12;;;;;;;5.07;2.30;;;;;;;;;;5016365;28;20026;-55
2022/11/20 07:28:39;;;;;;;7.35;2.80;;;;;;;;;;5016251;28;20076;-56
2022/11/20 07:31:07;;;;;;;5.97;2.40;;;;;;;;;;5016353;28;20037;-57
2022/11/20 07:33:34;;;;;;;8.30;2.67;;;;;;;;;;5015907;28;20041;-55
2022/11/20 07:36:01;;;;;;;4.95;2.10;;;;;;;;;;5016185;28;20076;-55
2022/11/20 07:38:28;;;;;;;6.95;2.80;;;;;;;;;;5016143;28;20488;-56
2022/11/20 07:40:57;;;;;;;8.13;2.28;;;;;;;;;;5015968;28;20030;-56
2022/11/20 07:43:25;;;;;;;5.07;2.20;;;;;;;;;;5015810;28;20061;-56
2022/11/20 07:45:52;;;;;;;4.45;2.30;;;;;;;;;;5016019;28;20491;-56
2022/11/20 07:48:19;;;;;;;5.55;2.30;;;;;;;;;;5015962;28;20033;-56
2022/11/20 07:50:46;;;;;;;4.53;2.13;;;;;;;;;;5016015;28;20030;-56
2022/11/20 07:53:13;;;;;;;4.28;2.17;;;;;;;;;;5015483;28;20026;-56
2022/11/20 07:55:40;;;;;;;5.53;2.05;;;;;;;;;;5015708;28;20053;-56
2022/11/20 07:58:07;;;;;;;4.22;2.22;;;;;;;;;;5014486;28;20026;-56
2022/11/20 08:00:34;;;;;;;3.85;2.00;;;;;;;;;;5015836;28;20108;-56
2022/11/20 08:03:04;;;;;;;5.40;2.10;;;;;;;;;;5015693;28;20049;-56
2022/11/20 08:05:31;;;;;;;4.95;1.98;;;;;;;;;;5015837;28;20061;-55
2022/11/20 08:07:58;;;;;;;5.68;2.00;;;;;;;;;;5015492;28;20108;-56
2022/11/20 08:10:25;;;;;;;3.40;1.77;;;;;;;;;;5015628;28;20032;-55
2022/11/20 08:15:39;;;;;;;3.25;1.85;;;;;;;;;;5015490;28;20506;-56
2022/11/20 08:18:06;;;;;;;5.22;2.17;;;;;;;;;;5014926;28;20053;-55
2022/11/20 08:20:33;;;;;;;4.50;1.92;;;;;;;;;;5015317;28;20048;-57
2022/11/20 08:23:03;;;;;;;4.45;2.00;;;;;;;;;;5015129;28;20061;-56
2022/11/20 08:25:30;;;;;;;5.60;2.08;;;;;;;;;;5015293;28;20025;-56
2022/11/20 08:28:01;;;;;;;5.65;1.60;;;;;;;;;;5015226;28;20480;-56
2022/11/20 08:30:29;;;;;;;4.72;2.10;;;;;;;;;;5015099;28;20065;-57
2022/11/20 08:32:56;;;;;;;3.88;1.80;;;;;;;;;;5015032;28;20018;-55
2022/11/20 08:35:23;;;;;;;4.50;1.70;;;;;;;;;;5015051;28;20528;-56
2022/11/20 08:37:49;;;;;;;3.67;1.77;;;;;;;;;;5014864;28;20022;-56
2022/11/20 08:40:16;;;;;;;3.85;1.90;;;;;;;;;;5014962;28;20050;-56
2022/11/20 08:42:50;;;;;;;3.10;1.85;;;;;;;;;;5014789;28;20033;-53
2022/11/20 08:45:18;;;;;;;3.55;1.98;;;;;;;;;;5014880;28;20076;-56
2022/11/20 08:47:46;;;;;;;5.05;2.03;;;;;;;;;;5014711;28;20117;-56
2022/11/20 08:50:14;;;;;;;4.50;1.88;;;;;;;;;;5014809;28;20032;-56
2022/11/20 08:52:41;;;;;;;3.35;1.80;;;;;;;;;;5013302;28;20042;-55
2022/11/20 08:55:08;;;;;;;4.03;1.70;;;;;;;;;;5014618;28;20042;-57
2022/11/20 08:57:36;;;;;;;4.90;2.13;;;;;;;;;;5014463;28;20392;-56
2022/11/20 09:00:05;;;;;;;4.50;2.00;;;;;;;;;;5014674;28;20040;-56
2022/11/20 09:02:32;;;;;;;4.20;1.85;;;;;;;;;;5013054;28;20369;-56
2022/11/20 09:04:59;;;;;;;4.93;1.50;;;;;;;;;;5014469;28;20427;-53
2022/11/20 09:07:26;;;;;;;4.78;2.05;;;;;;;;;;5010479;28;20034;-56
2022/11/20 09:09:53;;;;;;;5.78;1.58;;;;;;;;;;4994818;28;20829;-56
2022/11/20 09:12:20;;;;;;;3.47;1.92;;;;;;;;;;4994940;28;20081;-56
2022/11/20 09:14:47;;;;;;;3.38;1.73;;;;;;;;;;4994698;28;20034;-56
2022/11/20 09:17:14;;;;;;;3.47;1.60;;;;;;;;;;4994636;28;20051;-57
2022/11/20 09:19:41;;;;;;;2.95;1.67;;;;;;;;;;4994608;28;20022;-56
2022/11/20 09:22:08;;;;;;;3.50;1.60;;;;;;;;;;4994553;28;20053;-56
2022/11/20 09:24:35;;;;;;;5.18;1.92;;;;;;;;;;4994438;28;20030;-54
2022/11/20 09:27:03;;;;;;;4.03;1.80;;;;;;;;;;4994410;28;20030;-53
2022/11/20 09:29:30;;;;;;;2.35;1.35;;;;;;;;;;4994386;28;20030;-55
2022/11/20 09:31:57;;;;;;;2.75;1.52;;;;;;;;;;4993629;28;20034;-56
2022/11/20 09:34:24;;;;;;;3.47;1.73;;;;;;;;;;4994323;28;20034;-55
2022/11/20 09:36:51;;;;;;;3.08;1.77;;;;;;;;;;4994196;28;20035;-56
2022/11/20 09:39:18;;;;;;;4.75;1.60;;;;;;;;;;4994116;28;20472;-56
2022/11/20 09:41:51;;;;;;;3.35;1.60;;;;;;;;;;4994158;28;20035;-57
2022/11/20 09:44:17;;;;;;;2.58;1.45;;;;;;;;;;4994258;28;20030;-56
2022/11/20 09:46:57;;;;;;;3.85;1.42;;;;;;;;;;4994184;28;20034;-55
2022/11/20 09:49:33;;;;;;;4.15;1.23;;;;;;;;;;4994152;28;20077;-56
2022/11/20 09:52:02;;;;;;;1.92;1.30;;;;;;;;;;4993656;28;20041;-56
2022/11/20 09:54:31;;;;;;;7.07;1.58;;;;;;;;;;4993926;28;20034;-56
2022/11/20 09:57:03;;;;;;;3.72;1.38;;;;;;;;;;4994008;28;20057;-54
2022/11/20 09:59:36;;;;;;;2.55;1.35;;;;;;;;;;4993938;28;20038;-56
2022/11/20 10:02:07;;;;;;;5.55;1.48;;;;;;;;;;4993976;28;20061;-56
2022/11/20 10:04:34;;;;;;;3.35;1.70;;;;;;;;;;4993684;28;20039;-55
2022/11/20 10:07:01;;;;;;;3.20;1.25;;;;;;;;;;4994057;28;20030;-55
2022/11/20 10:09:34;;;;;;;4.40;1.30;;;;;;;;;;4993839;28;20400;-56
2022/11/20 10:12:04;;;;;;;3.60;1.48;;;;;;;;;;4993572;28;20081;-56
2022/11/20 10:14:31;;;;;;;3.05;1.58;;;;;;;;;;4993609;28;20480;-55
2022/11/20 10:17:03;;;;;;;3.00;1.27;;;;;;;;;;4993327;28;20047;-56
2022/11/20 10:19:32;;;;;;;3.13;1.20;;;;;;;;;;4993535;28;20050;-56
2022/11/20 10:22:17;;;;;;;1.85;1.10;;;;;;;;;;4993464;28;20088;-56
2022/11/20 10:24:57;;;;;;;4.18;1.23;;;;;;;;;;4993358;28;20101;-57
2022/11/20 10:27:24;;;;;;;3.25;1.23;;;;;;;;;;4993534;28;20026;-56
2022/11/20 10:30:12;;;;;;;3.13;1.10;;;;;;;;;;4993381;28;20432;-56
2022/11/20 10:32:40;;;;;;;2.95;1.40;;;;;;;;;;4993330;28;20019;-56
2022/11/20 10:35:08;;;;;;;2.58;1.30;;;;;;;;;;4993163;28;20113;-56
2022/11/20 10:37:37;;;;;;;5.03;1.48;;;;;;;;;;4993377;28;20030;-56
2022/11/20 10:40:24;;;;;;;5.32;1.10;;;;;;;;;;4993344;28;20033;-55
2022/11/20 10:42:55;;;;;;;4.40;1.30;;;;;;;;;;4985883;28;20053;-56
2022/11/20 10:45:26;;;;;;;2.83;1.00;;;;;;;;;;4993302;28;20492;-56
2022/11/20 10:48:11;;;;;;;3.10;1.17;;;;;;;;;;4993063;28;20034;-56
2022/11/20 10:50:41;;;;;;;3.75;1.13;;;;;;;;;;4993285;28;20058;-57
2022/11/20 10:53:14;;;;;;;5.40;1.52;;;;;;;;;;4993045;28;20420;-55
2022/11/20 10:56:04;;;;;;;7.30;1.80;;;;;;;;;;4993171;28;20066;-55
2022/11/20 10:58:31;;;;;;;3.88;1.35;;;;;;;;;;4993222;28;20030;-56
2022/11/20 11:01:14;;;;;;;4.18;1.27;;;;;;;;;;4992938;28;20370;-56
2022/11/20 11:03:45;;;;;;;3.17;1.52;;;;;;;;;;4992947;28;20038;-56
2022/11/20 11:06:21;;;;;;;2.13;1.02;;;;;;;;;;4993142;28;20141;-53
2022/11/20 11:08:49;;;;;;;3.20;1.30;;;;;;;;;;4993041;28;20030;-55
2022/11/20 11:11:16;;;;;;;2.78;1.15;;;;;;;;;;4992908;28;20037;-56
2022/11/20 11:13:43;;;;;;;3.70;1.38;;;;;;;;;;4992903;28;20065;-56
2022/11/20 11:16:22;;;;;;;5.10;1.38;;;;;;;;;;4992790;28;20034;-55
2022/11/20 11:18:49;;;;;;;2.80;1.20;;;;;;;;;;4992897;28;20045;-56
2022/11/20 11:21:25;;;;;;;5.25;1.30;;;;;;;;;;4992796;28;20056;-57
2022/11/20 11:24:00;;;;;;;3.50;1.25;;;;;;;;;;4992967;28;20038;-55
2022/11/20 11:26:27;;;;;;;3.83;1.30;;;;;;;;;;4992778;28;20034;-56
2022/11/20 11:28:59;;;;;;;3.58;1.17;;;;;;;;;;4992975;28;20054;-56
2022/11/20 11:31:30;;;;;;;4.32;1.25;;;;;;;;;;4992859;28;20026;-56
2022/11/20 11:34:09;;;;;;;3.80;1.13;;;;;;;;;;4992711;28;20038;-55
2022/11/20 11:36:36;;;;;;;5.40;1.40;;;;;;;;;;4992901;28;20258;-55
2022/11/20 11:39:05;;;;;;;3.50;1.33;;;;;;;;;;5007788;28;20026;-57
2022/11/20 11:41:35;;;;;;;4.05;1.38;;;;;;;;;;4992639;28;20030;-56
2022/11/20 11:47:01;;;;;;;3.33;1.35;;;;;;;;;;4992976;28;20054;-56
2022/11/20 11:49:28;;;;;;;2.85;1.20;;;;;;;;;;5007788;28;20632;-56
2022/11/20 11:51:55;;;;;;;5.70;1.50;;;;;;;;;;4992622;28;20026;-55
2022/11/20 11:54:29;;;;;;;3.33;1.38;;;;;;;;;;4994356;28;20038;-56
2022/11/20 11:56:56;;;;;;;3.83;1.30;;;;;;;;;;4999201;28;20024;-56
2022/11/20 11:59:28;;;;;;;5.30;1.67;;;;;;;;;;5015529;28;20503;-55
2022/11/20 12:01:58;;;;;;;4.60;1.60;;;;;;;;;;5015603;28;20029;-56
2022/11/20 12:04:37;;;;;;;5.38;1.98;;;;;;;;;;5014340;28;20514;-57
2022/11/20 12:07:10;;;;;;;5.85;1.50;;;;;;;;;;5014813;28;20026;-57
2022/11/20 12:09:42;;;;;;;7.70;1.90;;;;;;;;;;5014906;28;20042;-56
2022/11/20 12:12:17;;;;;;;4.60;1.27;;;;;;;;;;5014993;28;20488;-56
2022/11/20 12:14:47;;;;;;;4.03;1.60;;;;;;;;;;5013183;28;20035;-57
2022/11/20 12:17:15;;;;;;;5.03;1.60;;;;;;;;;;5013746;28;20408;-57
2022/11/20 12:19:42;;;;;;;4.18;1.65;;;;;;;;;;5014631;28;20500;-56
2022/11/20 12:22:09;;;;;;;5.35;1.48;;;;;;;;;;5014054;28;20025;-57
2022/11/20 12:24:36;;;;;;;3.67;1.23;;;;;;;;;;5013776;28;20038;-57
2022/11/20 12:27:10;;;;;;;8.27;1.98;;;;;;;;;;5014279;28;20092;-56
2022/11/20 12:29:46;;;;;;;6.60;1.60;;;;;;;;;;5012060;28;20053;-56
2022/11/20 12:32:16;;;;;;;6.43;1.80;;;;;;;;;;5012553;28;20036;-57
2022/11/20 12:34:52;;;;;;;5.85;1.42;;;;;;;;;;5013282;28;20518;-56
2022/11/20 12:37:28;;;;;;;3.97;1.40;;;;;;;;;;5010700;28;20044;-57
2022/11/20 12:39:57;;;;;;;7.60;1.58;;;;;;;;;;5010169;28;20025;-57
2022/11/20 12:45:47;;;;;;;4.90;1.80;;;;;;;;;;4972210;28;20039;-57
2022/11/20 12:48:20;;;;;;;7.15;1.70;;;;;;;;;;5007836;28;20068;-56
2022/11/20 12:51:05;;;;;;;6.55;1.75;;;;;;;;;;5010497;28;20084;-56
2022/11/20 12:53:32;;;;;;;6.95;2.05;;;;;;;;;;5011438;28;20030;-56
2022/11/20 12:56:13;;;;;;;5.90;1.73;;;;;;;;;;5012943;28;20037;-55
2022/11/20 12:58:45;;;;;;;5.63;1.60;;;;;;;;;;5012258;28;20064;-54
2022/11/20 13:01:40;;;;;;;5.82;1.40;;;;;;;;;;5013159;28;20369;-55
2022/11/20 13:04:10;;;;;;;4.35;1.42;;;;;;;;;;5013062;28;20026;-56
2022/11/20 13:06:37;;;;;;;7.45;1.65;;;;;;;;;;5013147;28;20522;-57
2022/11/20 13:09:05;;;;;;;6.90;1.70;;;;;;;;;;5012114;28;20033;-55
2022/11/20 13:11:41;;;;;;;6.45;1.50;;;;;;;;;;5012681;28;20037;-56
2022/11/20 13:14:12;;;;;;;5.20;1.63;;;;;;;;;;5013016;28;20400;-56
2022/11/20 13:16:51;;;;;;;8.67;1.40;;;;;;;;;;5012995;28;20058;-55
2022/11/20 13:19:18;;;;;;;5.13;1.48;;;;;;;;;;5010316;28;20288;-54
2022/11/20 13:21:48;;;;;;;5.47;1.45;;;;;;;;;;5012705;28;20513;-56
2022/11/20 13:24:29;;;;;;;7.07;1.85;;;;;;;;;;5010317;28;20034;-56
2022/11/20 13:27:08;;;;;;;9.05;1.88;;;;;;;;;;5009983;28;20040;-56
2022/11/20 13:29:37;;;;;;;7.03;1.50;;;;;;;;;;5009782;28;20126;-57
2022/11/20 13:32:06;;;;;;;8.35;1.70;;;;;;;;;;5012352;28;20105;-57
2022/11/20 13:34:32;;;;;;;7.35;1.67;;;;;;;;;;5012403;28;20096;-53
2022/11/20 13:37:00;;;;;;;7.65;1.55;;;;;;;;;;5005834;28;20439;-53
2022/11/20 13:39:38;;;;;;;22.90;2.30;;;;;;;;;;5012304;28;20030;-56
2022/11/20 13:42:14;;;;;;;17.45;2.03;;;;;;;;;;5012361;28;20121;-56
2022/11/20 13:44:47;;;;;;;9.73;2.05;;;;;;;;;;5012606;28;20034;-53
2022/11/20 13:47:27;;;;;;;10.43;1.70;;;;;;;;;;5012883;28;20121;-55
2022/11/20 13:49:55;;;;;;;13.13;2.17;;;;;;;;;;5012843;28;20044;-51
2022/11/20 13:52:41;;;;;;;6.97;1.92;;;;;;;;;;5011710;28;20030;-55
2022/11/20 13:55:07;;;;;;;10.63;2.00;;;;;;;;;;5011616;28;20048;-53
2022/11/20 13:57:52;;;;;;;13.40;1.95;;;;;;;;;;5012322;28;20041;-51
2022/11/20 14:00:21;;;;;;;11.32;1.83;;;;;;;;;;5027262;28;20172;-51
2022/11/20 14:03:06;;;;;;;7.70;1.70;;;;;;;;;;5011614;28;20026;-53
2022/11/20 14:05:38;;;;;;;13.52;1.90;;;;;;;;;;5008007;28;20034;-54
2022/11/20 14:08:07;;;;;;;10.13;1.55;;;;;;;;;;4992509;28;20022;-55
2022/11/20 14:10:34;;;;;;;11.02;1.90;;;;;;;;;;4992373;28;20037;-53
2022/11/20 14:13:10;;;;;;;9.20;1.75;;;;;;;;;;4992433;28;20401;-54
2022/11/20 14:15:40;;;;;;;6.40;1.40;;;;;;;;;;4992031;28;20058;-54
2022/11/20 14:18:36;;;;;;;6.55;1.40;;;;;;;;;;4991602;28;20512;-50
2022/11/20 14:21:04;;;;;;;7.05;1.60;;;;;;;;;;4983935;28;20046;-54
2022/11/20 14:23:31;;;;;;;6.68;1.80;;;;;;;;;;4991882;28;20507;-53
2022/11/20 14:25:58;;;;;;;9.02;1.73;;;;;;;;;;4992119;28;20030;-55
2022/11/20 14:28:29;;;;;;;4.20;1.30;;;;;;;;;;5005156;28;20048;-51
2022/11/20 14:30:57;;;;;;;9.80;1.75;;;;;;;;;;5008584;28;20053;-55
2022/11/20 14:33:26;;;;;;;6.47;1.60;;;;;;;;;;5010632;28;20056;-51
2022/11/20 14:35:54;;;;;;;4.80;1.48;;;;;;;;;;5010847;28;20396;-52
2022/11/20 14:38:32;;;;;;;6.50;1.80;;;;;;;;;;5012238;28;20055;-52
2022/11/20 14:41:19;;;;;;;8.48;1.75;;;;;;;;;;4996505;28;20031;-52
2022/11/20 14:43:47;;;;;;;5.85;1.20;;;;;;;;;;4992638;28;20604;-54
2022/11/20 14:46:14;;;;;;;13.13;2.08;;;;;;;;;;4992691;28;20023;-54
2022/11/20 14:48:44;;;;;;;8.95;1.70;;;;;;;;;;4992582;28;20030;-50
2022/11/20 14:51:12;;;;;;;11.35;1.80;;;;;;;;;;5009266;28;20061;-51
2022/11/20 14:53:39;;;;;;;5.05;1.98;;;;;;;;;;5011814;28;20042;-53
2022/11/20 14:56:06;;;;;;;6.30;1.45;;;;;;;;;;5011971;28;20062;-54
2022/11/20 14:58:34;;;;;;;9.77;1.27;;;;;;;;;;5011995;28;20037;-52
2022/11/20 15:01:05;;;;;;;4.05;1.27;;;;;;;;;;5012269;28;20487;-53
2022/11/20 15:03:33;;;;;;;12.20;1.88;;;;;;;;;;5011746;28;20084;-53
2022/11/20 15:06:00;;;;;;;7.55;1.95;;;;;;;;;;5012009;28;20439;-51
2022/11/20 15:08:28;;;;;;;13.95;2.00;;;;;;;;;;5012239;28;20042;-52
2022/11/20 15:10:55;;;;;;;3.85;1.95;;;;;;;;;;5011631;28;20034;-52